Accueil
METAR-TAF:

METAR-TAF

Aéroports :

Arnhem, Pays-Bas

latitude: 52-04N, longitude: 005-53E, altitude: 48 m

Observation

Le bulletin a été fait il y a 22 minutes, à 18:55 UTC
Vent 14 kt de nord, variant entre nord-ouest et nord-est
Température 0°C
Humidité 93%
Pression 979 hPa
Visibilité: 3400 m
Nuages épars à une hauteur de 600 ft
Nuages fragmentés à une hauteur de 700 ft
Nuages fragmentés à une hauteur de 800 ft
Quelques nuages à une hauteur de 1500 ft, Cumulonimbus.
neige faible

METAR: EHDL 111855Z AUTO 01014KT 320V050 3400 R20/P3000U -SN SCT006 BKN007 BKN008 FEW015CB M00/M01 Q0979 REFZRA YLO

Heure: 20:17 (19:17 UTC)


TAF: absent

Observations et prévisions météorologiques de plus de 4000 aéroports (messages METAR et TAF).

Les stations disponibles sont représentées par des disques jaunes et rouges sur la carte.

Passer la souris dessus pour voir le nom de la station.

Cliquer dessus pour voir les observations et prévisions météorologiques.

Pour changer de carte: cliquez sur les boutons verts avec une croix noire pour zoomer, sur le bouton vert avec un tiret pour effectuer un zoom arrière, ou sur les flèches vertes pour les cartes adjacentes.


METAR-TAF: